createdAt,value
2023-05-05T00:01:04.124Z,98657.97
2023-05-05T00:03:30.912Z,98655.56
2023-05-05T00:05:59.354Z,98657.84
2023-05-05T00:08:26.588Z,98653.38
2023-05-05T00:10:53.543Z,98663.72
2023-05-05T00:13:21.432Z,98662.03
2023-05-05T00:15:49.929Z,98667.22
2023-05-05T00:18:18.001Z,98661.94
2023-05-05T00:20:47.270Z,98657.59
2023-05-05T00:23:17.330Z,98665.66
2023-05-05T00:25:44.176Z,98661.47
2023-05-05T00:28:12.131Z,98664.22
2023-05-05T00:30:40.001Z,98661.88
2023-05-05T00:33:06.804Z,98660.78
2023-05-05T00:35:33.726Z,98654.78
2023-05-05T00:38:00.817Z,98649.97
2023-05-05T00:40:27.716Z,98647.69
2023-05-05T00:42:54.386Z,98654.28
2023-05-05T00:45:21.232Z,98660.38
2023-05-05T00:47:54.472Z,98653.06
2023-05-05T00:50:25.719Z,98651.59
2023-05-05T00:53:02.021Z,98651.59
2023-05-05T00:55:29.912Z,98652.78
2023-05-05T00:58:01.891Z,98652.56
2023-05-05T01:00:29.102Z,98652.66
2023-05-05T01:02:56.232Z,98656.50
2023-05-05T01:05:24.310Z,98652.16
2023-05-05T01:08:27.533Z,98653.94
2023-05-05T01:11:17.900Z,98648.91
2023-05-05T01:14:13.791Z,98657.00
2023-05-05T01:16:59.020Z,98657.16
2023-05-05T01:19:46.653Z,98652.91
2023-05-05T01:22:17.560Z,98654.72
2023-05-05T01:24:59.288Z,98654.09
2023-05-05T01:27:44.835Z,98652.75
2023-05-05T01:30:27.276Z,98661.75
2023-05-05T01:33:01.568Z,98665.72
2023-05-05T01:35:33.052Z,98667.50
2023-05-05T01:38:22.290Z,98658.22
2023-05-05T01:41:03.824Z,98659.25
2023-05-05T01:43:33.803Z,98658.03
2023-05-05T01:46:02.454Z,98663.78
2023-05-05T01:48:33.515Z,98670.22
2023-05-05T01:51:04.132Z,98672.03
2023-05-05T01:53:32.606Z,98667.56
2023-05-05T01:55:59.660Z,98664.34
2023-05-05T01:58:28.461Z,98663.78
2023-05-05T02:00:57.581Z,98668.47
2023-05-05T02:03:25.810Z,98664.44
2023-05-05T02:05:53.869Z,98670.44
2023-05-05T02:08:21.767Z,98669.44
2023-05-05T02:10:50.875Z,98677.41
2023-05-05T02:13:20.345Z,98673.63
2023-05-05T02:15:47.447Z,98673.75
2023-05-05T02:18:15.811Z,98678.47
2023-05-05T02:20:43.087Z,98671.72
2023-05-05T02:23:10.164Z,98683.25
2023-05-05T02:25:45.925Z,98687.78
2023-05-05T02:28:20.387Z,98685.25
2023-05-05T02:31:00.913Z,98682.94
2023-05-05T02:33:32.629Z,98685.19
2023-05-05T02:36:07.000Z,98687.28
2023-05-05T02:38:35.214Z,98688.44
2023-05-05T02:41:03.876Z,98688.75
2023-05-05T02:43:32.069Z,98690.16
2023-05-05T02:45:58.622Z,98692.16
2023-05-05T02:48:25.542Z,98687.81
2023-05-05T02:50:53.046Z,98692.59
2023-05-05T02:53:24.765Z,98686.78
2023-05-05T02:56:01.851Z,98695.66
2023-05-05T02:58:42.775Z,98682.03
2023-05-05T03:01:50.106Z,98685.81
2023-05-05T03:04:31.956Z,98689.09
2023-05-05T03:07:02.901Z,98685.81
2023-05-05T03:09:57.919Z,98692.16
2023-05-05T03:12:32.106Z,98688.13
2023-05-05T03:15:02.187Z,98689.91
2023-05-05T03:17:31.128Z,98688.44
2023-05-05T03:19:58.431Z,98689.69
2023-05-05T03:22:27.593Z,98694.22
2023-05-05T03:24:54.165Z,98683.16
2023-05-05T03:27:20.906Z,98687.69
2023-05-05T03:29:47.501Z,98690.31
2023-05-05T03:32:14.169Z,98684.28
2023-05-05T03:34:40.764Z,98690.41
2023-05-05T03:37:07.391Z,98688.19
2023-05-05T03:39:33.977Z,98691.78
2023-05-05T03:42:00.741Z,98699.75
2023-05-05T03:44:27.405Z,98691.88
2023-05-05T03:46:53.985Z,98695.53
2023-05-05T03:49:20.557Z,98693.84
2023-05-05T03:51:47.511Z,98699.13
2023-05-05T03:54:14.107Z,98696.44
2023-05-05T03:56:40.858Z,98701.91
2023-05-05T03:59:08.734Z,98698.63
2023-05-05T04:01:35.777Z,98697.81
2023-05-05T04:04:02.719Z,98703.16
2023-05-05T04:06:29.973Z,98698.91
2023-05-05T04:08:57.057Z,98708.63
2023-05-05T04:11:23.874Z,98704.31
2023-05-05T04:13:51.068Z,98704.50
2023-05-05T04:16:17.737Z,98702.91
2023-05-05T04:18:44.421Z,98706.19
2023-05-05T04:21:11.031Z,98700.16
2023-05-05T04:23:37.571Z,98703.38
2023-05-05T04:26:04.192Z,98701.56
2023-05-05T04:28:30.800Z,98712.09
2023-05-05T04:30:57.554Z,98708.25
2023-05-05T04:33:24.190Z,98715.13
2023-05-05T04:35:51.076Z,98711.47
2023-05-05T04:38:20.460Z,98715.03
2023-05-05T04:40:47.146Z,98712.28
2023-05-05T04:43:14.132Z,98720.31
2023-05-05T04:45:40.669Z,98717.34
2023-05-05T04:48:07.290Z,98714.44
2023-05-05T04:50:33.867Z,98716.03
2023-05-05T04:53:00.495Z,98717.44
2023-05-05T04:55:28.022Z,98714.59
2023-05-05T04:57:54.585Z,98710.81
2023-05-05T05:00:21.717Z,98711.34
2023-05-05T05:02:48.346Z,98716.41
2023-05-05T05:05:14.975Z,98723.28
2023-05-05T05:07:41.571Z,98722.13
2023-05-05T05:10:08.817Z,98719.94
2023-05-05T05:12:35.653Z,98717.19
2023-05-05T05:15:02.289Z,98723.94
2023-05-05T05:17:30.629Z,98724.47
2023-05-05T05:19:59.219Z,98733.03
2023-05-05T05:22:25.832Z,98728.41
2023-05-05T05:24:52.755Z,98734.34
2023-05-05T05:27:19.448Z,98728.66
2023-05-05T05:29:46.023Z,98744.16
2023-05-05T05:32:12.893Z,98743.31
2023-05-05T05:34:39.516Z,98745.44
2023-05-05T05:37:06.188Z,98748.63
2023-05-05T05:39:32.779Z,98750.19
2023-05-05T05:41:59.381Z,98756.75
2023-05-05T05:44:25.972Z,98756.31
2023-05-05T05:46:53.278Z,98746.09
2023-05-05T05:49:19.835Z,98754.31
2023-05-05T05:51:46.429Z,98749.00
2023-05-05T05:54:13.034Z,98758.03
2023-05-05T05:56:39.619Z,98759.38
2023-05-05T05:59:10.074Z,98763.50
2023-05-05T06:01:37.011Z,98759.44
2023-05-05T06:04:03.866Z,98755.53
2023-05-05T06:06:30.501Z,98756.56
2023-05-05T06:08:57.140Z,98760.03
2023-05-05T06:11:23.799Z,98766.09
2023-05-05T06:13:50.398Z,98766.47
2023-05-05T06:16:17.181Z,98769.19
2023-05-05T06:18:43.848Z,98770.47
2023-05-05T06:21:13.335Z,98769.97
2023-05-05T06:23:40.894Z,98773.59
2023-05-05T06:26:07.488Z,98773.00
2023-05-05T06:28:34.093Z,98773.88
2023-05-05T06:31:00.814Z,98761.59
2023-05-05T06:33:27.494Z,98773.03
2023-05-05T06:35:54.386Z,98773.16
2023-05-05T06:38:21.289Z,98774.22
2023-05-05T06:40:49.650Z,98772.53
2023-05-05T06:43:17.986Z,98766.38
2023-05-05T06:45:44.645Z,98769.22
2023-05-05T06:48:11.222Z,98768.34
2023-05-05T06:50:38.052Z,98769.06
2023-05-05T06:53:05.171Z,98768.22
2023-05-05T06:55:32.483Z,98767.03
2023-05-05T06:57:59.249Z,98769.94
2023-05-05T07:00:25.939Z,98770.00
2023-05-05T07:02:52.553Z,98778.75
2023-05-05T07:05:20.190Z,98772.06
2023-05-05T07:07:54.359Z,98776.31
2023-05-05T07:10:22.575Z,98773.81
2023-05-05T07:12:49.749Z,98774.28
2023-05-05T07:15:27.993Z,98768.81
2023-05-05T07:17:56.670Z,98773.97
2023-05-05T07:20:23.618Z,98781.09
2023-05-05T07:22:50.355Z,98776.53
2023-05-05T07:25:17.202Z,98774.75
2023-05-05T07:27:43.976Z,98776.88
2023-05-05T07:30:15.391Z,98781.16
2023-05-05T07:32:44.560Z,98783.31
2023-05-05T07:35:11.413Z,98783.09
2023-05-05T07:37:38.075Z,98777.25
2023-05-05T07:40:05.231Z,98782.47
2023-05-05T07:42:31.834Z,98770.13
2023-05-05T07:44:58.751Z,98770.13
2023-05-05T07:47:25.611Z,98762.06
2023-05-05T07:49:52.215Z,98765.59
2023-05-05T07:52:27.378Z,98759.97
2023-05-05T07:55:00.134Z,98769.53
2023-05-05T07:57:26.794Z,98769.22
2023-05-05T07:59:53.490Z,98766.84
2023-05-05T08:02:22.789Z,98768.22
2023-05-05T08:04:51.152Z,98768.94
2023-05-05T08:07:18.106Z,98758.84
2023-05-05T08:09:44.721Z,98753.34
2023-05-05T08:12:12.395Z,98755.34
2023-05-05T08:14:40.374Z,98749.25
2023-05-05T08:17:07.277Z,98751.22
2023-05-05T08:19:34.001Z,98751.84
2023-05-05T08:22:01.826Z,98752.16
2023-05-05T08:24:29.003Z,98748.84
2023-05-05T08:26:56.772Z,98746.53
2023-05-05T08:29:23.593Z,98751.72
2023-05-05T08:31:50.453Z,98747.91
2023-05-05T08:34:17.080Z,98750.22
2023-05-05T08:36:43.761Z,98753.34
2023-05-05T08:39:10.798Z,98756.50
2023-05-05T08:41:39.120Z,98758.72
2023-05-05T08:44:08.448Z,98757.19
2023-05-05T08:46:36.299Z,98761.06
2023-05-05T08:49:05.442Z,98763.88
2023-05-05T08:51:41.162Z,98758.00
2023-05-05T08:54:13.231Z,98764.91
2023-05-05T08:56:43.754Z,98760.88
2023-05-05T08:59:16.647Z,98762.91
2023-05-05T09:01:44.296Z,98761.03
2023-05-05T09:04:12.335Z,98764.06
2023-05-05T09:06:39.093Z,98762.38
2023-05-05T09:09:06.750Z,98760.81
2023-05-05T09:11:34.576Z,98758.59
2023-05-05T09:14:01.877Z,98757.81
2023-05-05T09:16:28.596Z,98761.34
2023-05-05T09:19:04.723Z,98757.19
2023-05-05T09:21:32.465Z,98760.84
2023-05-05T09:24:09.977Z,98763.06
2023-05-05T09:26:46.322Z,98766.50
2023-05-05T09:29:20.259Z,98769.88
2023-05-05T09:32:09.023Z,98770.25
2023-05-05T09:34:36.423Z,98765.00
2023-05-05T09:37:03.455Z,98762.00
2023-05-05T09:39:30.076Z,98764.34
2023-05-05T09:41:56.854Z,98763.63
2023-05-05T09:44:40.734Z,98763.50
2023-05-05T09:47:18.185Z,98755.06
2023-05-05T09:50:00.892Z,98748.34
2023-05-05T09:52:28.228Z,98740.31
2023-05-05T09:54:58.690Z,98743.06
2023-05-05T09:57:27.270Z,98737.63
2023-05-05T09:59:58.862Z,98742.75
2023-05-05T10:02:36.880Z,98748.88
2023-05-05T10:05:15.409Z,98743.16
2023-05-05T10:07:47.992Z,98742.56
2023-05-05T10:10:17.322Z,98743.28
2023-05-05T10:12:47.761Z,98745.53
2023-05-05T10:15:16.327Z,98752.13
2023-05-05T10:18:02.283Z,98745.97
2023-05-05T10:20:33.465Z,98751.28
2023-05-05T10:23:05.633Z,98745.53
2023-05-05T10:25:40.907Z,98745.13
2023-05-05T10:28:13.715Z,98747.84
2023-05-05T10:30:44.656Z,62137.28
2023-05-05T10:35:53.918Z,62137.28
2023-05-05T10:38:24.122Z,62137.28
2023-05-05T10:40:52.875Z,62137.28
2023-05-05T10:43:19.765Z,62137.28
2023-05-05T10:45:47.170Z,62137.28
2023-05-05T10:48:25.914Z,62137.28
2023-05-05T10:51:03.490Z,62137.28
2023-05-05T10:53:38.133Z,62137.28
2023-05-05T10:56:26.940Z,98712.50
2023-05-05T10:59:00.004Z,98714.53
2023-05-05T11:01:32.645Z,98708.78
2023-05-05T11:04:20.240Z,98705.94
2023-05-05T11:07:11.606Z,98711.75
2023-05-05T11:10:01.697Z,98711.66
2023-05-05T11:12:32.686Z,98708.41
2023-05-05T11:15:24.359Z,98711.44
2023-05-05T11:17:51.155Z,98705.38
2023-05-05T11:20:39.883Z,98706.53
2023-05-05T11:23:08.076Z,98700.13
2023-05-05T11:25:35.023Z,98703.00
2023-05-05T11:28:11.250Z,98694.41
2023-05-05T11:30:59.505Z,98692.44
2023-05-05T11:33:38.212Z,98688.28
2023-05-05T11:36:14.183Z,98684.75
2023-05-05T11:39:04.971Z,98677.56
2023-05-05T11:41:34.152Z,98675.91
2023-05-05T11:44:20.942Z,98669.75
2023-05-05T11:46:57.731Z,98670.03
2023-05-05T11:49:34.125Z,98666.66
2023-05-05T11:52:09.099Z,98674.16
2023-05-05T11:54:47.736Z,98667.78
2023-05-05T11:57:15.488Z,98664.00
2023-05-05T12:00:02.411Z,98666.09
2023-05-05T12:02:30.199Z,98666.19
2023-05-05T12:04:59.097Z,98669.66
2023-05-05T12:07:27.477Z,98686.84
2023-05-05T12:09:55.419Z,98667.22
2023-05-05T12:12:35.855Z,98666.47
2023-05-05T12:15:04.546Z,98665.78
2023-05-05T12:17:46.095Z,98667.06
2023-05-05T12:20:14.323Z,98662.94
2023-05-05T12:22:42.400Z,98666.38
2023-05-05T12:25:09.871Z,98664.28
2023-05-05T12:27:36.631Z,98656.47
2023-05-05T12:30:18.875Z,98653.97
2023-05-05T12:32:46.069Z,98657.59
2023-05-05T12:35:14.113Z,98662.75
2023-05-05T12:37:45.535Z,98661.22
2023-05-05T12:40:49.003Z,98662.44
2023-05-05T12:43:31.955Z,98658.31
2023-05-05T12:46:12.385Z,98660.13
2023-05-05T12:48:46.335Z,98652.50
2023-05-05T12:51:18.733Z,98649.25
2023-05-05T12:53:47.486Z,98650.47
2023-05-05T12:56:33.810Z,98651.66
2023-05-05T12:59:02.210Z,98644.97
2023-05-05T13:01:29.900Z,98651.09
2023-05-05T13:04:11.841Z,98651.09
2023-05-05T13:06:46.070Z,98651.09
2023-05-05T13:09:27.088Z,98645.31
2023-05-05T13:11:54.793Z,98659.03
2023-05-05T13:14:23.111Z,98665.31
2023-05-05T13:16:50.573Z,98659.84
2023-05-05T13:19:17.272Z,98660.19
2023-05-05T13:21:43.846Z,98665.44
2023-05-05T13:24:23.055Z,98653.03
2023-05-05T13:26:55.876Z,98666.13
2023-05-05T13:29:28.371Z,98669.31
2023-05-05T13:31:58.861Z,98676.16
2023-05-05T13:34:25.862Z,98672.44
2023-05-05T13:36:52.682Z,98668.41
2023-05-05T13:39:20.177Z,98669.22
2023-05-05T13:41:47.012Z,98665.19
2023-05-05T13:44:14.082Z,98660.28
2023-05-05T13:46:42.225Z,98665.97
2023-05-05T13:49:09.238Z,98668.22
2023-05-05T13:51:37.050Z,98675.34
2023-05-05T13:54:04.142Z,98692.72
2023-05-05T13:56:31.082Z,98709.94
2023-05-05T13:58:57.722Z,98726.97
2023-05-05T14:01:24.283Z,98740.63
2023-05-05T14:03:51.017Z,98744.94
2023-05-05T14:06:17.882Z,98737.41
2023-05-05T14:08:44.497Z,98733.34
2023-05-05T14:11:11.215Z,98736.56
2023-05-05T14:13:38.227Z,98739.50
2023-05-05T14:16:05.165Z,98732.06
2023-05-05T14:18:31.803Z,98734.59
2023-05-05T14:20:58.381Z,98736.88
2023-05-05T14:23:24.991Z,98736.16
2023-05-05T14:25:51.639Z,98729.72
2023-05-05T14:28:18.345Z,98725.09
2023-05-05T14:30:44.966Z,98730.13
2023-05-05T14:33:11.581Z,98717.66
2023-05-05T14:35:38.215Z,98718.50
2023-05-05T14:38:04.941Z,98696.91
2023-05-05T14:40:31.861Z,98697.59
2023-05-05T14:42:58.655Z,98687.19
2023-05-05T14:45:26.333Z,98688.19
2023-05-05T14:47:53.588Z,98682.56
2023-05-05T14:50:20.999Z,98679.56
2023-05-05T14:52:48.952Z,98677.47
2023-05-05T14:55:16.038Z,98668.72
2023-05-05T14:57:42.649Z,98663.50
2023-05-05T15:00:10.959Z,98661.38
2023-05-05T15:02:37.964Z,98662.06
2023-05-05T15:05:05.170Z,98681.69
2023-05-05T15:07:31.829Z,98663.66
2023-05-05T15:09:58.544Z,98670.09
2023-05-05T15:12:26.133Z,98669.84
2023-05-05T15:14:52.896Z,98666.50
2023-05-05T15:17:19.694Z,98657.66
2023-05-05T15:19:46.378Z,98655.84
2023-05-05T15:22:13.101Z,98661.00
2023-05-05T15:24:39.732Z,98667.03
2023-05-05T15:27:06.475Z,98665.75
2023-05-05T15:29:33.188Z,98658.56
2023-05-05T15:32:01.356Z,98656.16
2023-05-05T15:34:28.970Z,98651.75
2023-05-05T15:36:56.211Z,98648.94
2023-05-05T15:39:22.917Z,98663.03
2023-05-05T15:41:50.650Z,98649.88
2023-05-05T15:44:17.435Z,98662.09
2023-05-05T15:46:44.234Z,98658.38
2023-05-05T15:49:10.890Z,98645.19
2023-05-05T15:51:40.951Z,98654.66
2023-05-05T15:54:07.834Z,98646.97
2023-05-05T15:56:34.424Z,98642.31
2023-05-05T15:59:01.680Z,98655.91
2023-05-05T16:01:28.458Z,98642.41
2023-05-05T16:03:55.111Z,98646.56
2023-05-05T16:06:22.164Z,98652.03
2023-05-05T16:08:51.719Z,98649.69
2023-05-05T16:11:22.477Z,98654.47
2023-05-05T16:13:49.398Z,98659.59
2023-05-05T16:16:16.139Z,98665.50
2023-05-05T16:18:42.996Z,98659.56
2023-05-05T16:21:09.902Z,98663.63
2023-05-05T16:23:36.567Z,98660.84
2023-05-05T16:26:04.140Z,98668.03
2023-05-05T16:28:33.081Z,98671.81
2023-05-05T16:31:01.116Z,98671.25
2023-05-05T16:33:28.855Z,98676.16
2023-05-05T16:35:56.019Z,98673.94
2023-05-05T16:38:22.995Z,98677.19
2023-05-05T16:40:49.724Z,98681.28
2023-05-05T16:43:16.623Z,98674.56
2023-05-05T16:45:43.621Z,98675.56
2023-05-05T16:48:10.400Z,98674.56
2023-05-05T16:50:37.027Z,98669.97
2023-05-05T16:53:03.758Z,98675.00
2023-05-05T16:55:30.542Z,98669.56
2023-05-05T16:57:57.127Z,98676.41
2023-05-05T17:00:23.922Z,98676.16
2023-05-05T17:02:50.564Z,98679.06
2023-05-05T17:05:17.683Z,98680.53
2023-05-05T17:07:44.572Z,98675.31
2023-05-05T17:10:11.205Z,98673.09
2023-05-05T17:12:37.909Z,98678.41
2023-05-05T17:15:05.045Z,98671.56
2023-05-05T17:17:31.958Z,98668.09
2023-05-05T17:19:59.303Z,98670.59
2023-05-05T17:22:26.961Z,98676.19
2023-05-05T17:24:53.564Z,98673.41
2023-05-05T17:27:21.198Z,98672.56
2023-05-05T17:29:47.908Z,98671.75
2023-05-05T17:32:14.556Z,98668.22
2023-05-05T17:34:41.471Z,98663.31
2023-05-05T17:37:09.425Z,98668.63
2023-05-05T17:39:36.168Z,98656.72
2023-05-05T17:42:02.955Z,98663.13
2023-05-05T17:44:32.926Z,98658.69
2023-05-05T17:46:59.633Z,98655.91
2023-05-05T17:49:26.329Z,98659.41
2023-05-05T17:51:53.051Z,98655.63
2023-05-05T17:54:19.692Z,98654.81
2023-05-05T17:56:46.964Z,98652.97
2023-05-05T17:59:13.817Z,98656.19
2023-05-05T18:01:40.597Z,98654.78
2023-05-05T18:04:07.376Z,98651.13
2023-05-05T18:06:34.194Z,98655.75
2023-05-05T18:09:00.882Z,98666.38
2023-05-05T18:11:30.004Z,98657.72
2023-05-05T18:13:56.995Z,98662.19
2023-05-05T18:16:25.541Z,98666.78
2023-05-05T18:18:52.429Z,98660.63
2023-05-05T18:21:19.415Z,98669.84
2023-05-05T18:23:46.235Z,98668.72
2023-05-05T18:26:12.967Z,98681.19
2023-05-05T18:28:39.677Z,98681.59
2023-05-05T18:31:06.668Z,98685.34
2023-05-05T18:33:33.612Z,98692.03
2023-05-05T18:36:05.235Z,98685.31
2023-05-05T18:38:32.834Z,98688.50
2023-05-05T18:40:59.432Z,98686.09
2023-05-05T18:43:26.083Z,98686.63
2023-05-05T18:45:52.804Z,98685.47
2023-05-05T18:48:19.492Z,98688.69
2023-05-05T18:50:46.895Z,98695.75
2023-05-05T18:53:15.137Z,98702.31
2023-05-05T18:55:43.405Z,98699.31
2023-05-05T18:58:10.564Z,98700.81
2023-05-05T19:00:38.284Z,98702.75
2023-05-05T19:03:04.946Z,98702.44
2023-05-05T19:05:31.719Z,98703.66
2023-05-05T19:07:58.505Z,98701.53
2023-05-05T19:10:25.301Z,98706.63
2023-05-05T19:12:52.070Z,98693.91
2023-05-05T19:15:18.875Z,98700.81
2023-05-05T19:17:45.563Z,98708.31
2023-05-05T19:20:12.400Z,98701.81
2023-05-05T19:22:39.815Z,98713.91
2023-05-05T19:25:08.298Z,98715.34
2023-05-05T19:27:36.995Z,98727.28
2023-05-05T19:30:05.239Z,98719.59
2023-05-05T19:32:31.959Z,98722.28
2023-05-05T19:34:59.035Z,98722.66
2023-05-05T19:37:26.687Z,98711.59
2023-05-05T19:39:53.368Z,98720.00
2023-05-05T19:42:20.560Z,98721.13
2023-05-05T19:44:47.223Z,98726.66
2023-05-05T19:47:15.270Z,98731.47
2023-05-05T19:49:41.927Z,98734.47
2023-05-05T19:52:08.500Z,98740.13
2023-05-05T19:54:35.106Z,98748.59
2023-05-05T19:57:03.404Z,98747.50
2023-05-05T19:59:30.224Z,98751.72
2023-05-05T20:01:56.927Z,98759.44
2023-05-05T20:04:23.582Z,98760.13
2023-05-05T20:06:50.979Z,98760.59
2023-05-05T20:09:17.832Z,98757.69
2023-05-05T20:11:44.454Z,98758.28
2023-05-05T20:14:12.212Z,98756.91
2023-05-05T20:16:39.651Z,98753.91
2023-05-05T20:19:06.350Z,98756.03
2023-05-05T20:21:34.749Z,98749.78
2023-05-05T20:24:01.292Z,98756.13
2023-05-05T20:26:28.580Z,98754.44
2023-05-05T20:28:55.277Z,98755.63
2023-05-05T20:31:22.354Z,98750.59
2023-05-05T20:33:49.124Z,98749.56
2023-05-05T20:36:17.864Z,98756.63
2023-05-05T20:38:44.673Z,98750.97
2023-05-05T20:41:11.775Z,98753.19
2023-05-05T20:43:39.079Z,98752.69
2023-05-05T20:46:05.907Z,98755.53
2023-05-05T20:48:32.514Z,98756.84
2023-05-05T20:51:02.660Z,98761.72
2023-05-05T20:53:30.393Z,98763.09
2023-05-05T20:55:58.887Z,98756.34
2023-05-05T20:58:25.849Z,98759.84
2023-05-05T21:00:52.463Z,98759.94
2023-05-05T21:03:19.117Z,98753.81
2023-05-05T21:05:46.163Z,98765.47
2023-05-05T21:08:12.867Z,98754.34
2023-05-05T21:10:39.737Z,98754.81
2023-05-05T21:13:06.497Z,98762.22
2023-05-05T21:15:37.244Z,98772.06
2023-05-05T21:18:08.745Z,98776.59
2023-05-05T21:20:35.888Z,98782.19
2023-05-05T21:23:02.573Z,98773.78
2023-05-05T21:25:30.942Z,98782.28
2023-05-05T21:27:57.536Z,98782.59
2023-05-05T21:30:24.196Z,98779.22
2023-05-05T21:32:52.457Z,98779.44
2023-05-05T21:35:19.169Z,98782.50
2023-05-05T21:37:45.795Z,98780.91
2023-05-05T21:40:14.209Z,98780.81
2023-05-05T21:42:43.960Z,98782.91
2023-05-05T21:45:12.048Z,98784.38
2023-05-05T21:47:39.367Z,98781.97
2023-05-05T21:50:06.636Z,98778.91
2023-05-05T21:52:33.575Z,98780.16
2023-05-05T21:55:00.224Z,98783.09
2023-05-05T21:57:26.853Z,98775.06
2023-05-05T21:59:53.481Z,98781.78
2023-05-05T22:02:20.097Z,98777.13
2023-05-05T22:04:48.620Z,98771.13
2023-05-05T22:07:16.999Z,98771.53
2023-05-05T22:09:43.708Z,98765.31
2023-05-05T22:12:10.318Z,98770.59
2023-05-05T22:14:37.173Z,98765.22
2023-05-05T22:17:03.801Z,98767.84
2023-05-05T22:19:31.986Z,98769.75
2023-05-05T22:21:58.923Z,98777.56
2023-05-05T22:24:25.753Z,98770.59
2023-05-05T22:26:52.455Z,98776.81
2023-05-05T22:29:20.893Z,98774.47
2023-05-05T22:31:48.347Z,98767.44
2023-05-05T22:34:15.216Z,98770.25
2023-05-05T22:36:43.105Z,98774.03
2023-05-05T22:39:09.915Z,98772.84
2023-05-05T22:41:36.565Z,98779.81
2023-05-05T22:44:03.146Z,98771.91
2023-05-05T22:46:29.791Z,98773.78
2023-05-05T22:48:56.506Z,98772.84
2023-05-05T22:51:23.406Z,98777.06
2023-05-05T22:53:49.992Z,98771.91
2023-05-05T22:56:16.776Z,98766.75
2023-05-05T22:58:43.399Z,98764.19
2023-05-05T23:01:11.978Z,98761.75
2023-05-05T23:03:38.601Z,98751.44
2023-05-05T23:06:06.785Z,98750.47
2023-05-05T23:08:35.290Z,98760.91
2023-05-05T23:11:01.853Z,98754.06
2023-05-05T23:13:28.412Z,98751.53
2023-05-05T23:15:55.036Z,98752.47
2023-05-05T23:18:21.575Z,98749.28
2023-05-05T23:20:48.222Z,98748.84
2023-05-05T23:23:15.227Z,98753.38
2023-05-05T23:25:41.779Z,98757.25
2023-05-05T23:28:08.300Z,98755.84
2023-05-05T23:30:34.968Z,98760.16
2023-05-05T23:33:01.558Z,98761.84
2023-05-05T23:35:28.481Z,98744.56
2023-05-05T23:37:55.224Z,98749.91
2023-05-05T23:40:22.112Z,98751.81
2023-05-05T23:42:48.721Z,98760.66
2023-05-05T23:45:17.496Z,98758.09
2023-05-05T23:47:47.162Z,98746.00
2023-05-05T23:50:13.745Z,98747.00
2023-05-05T23:52:41.803Z,98751.59
2023-05-05T23:55:09.045Z,98747.38
2023-05-05T23:57:37.965Z,98743.06
